createdAt,value
2022-12-13T00:02:08.079Z,-2.20
2022-12-13T00:05:10.164Z,-2.10
2022-12-13T00:08:12.196Z,-2.10
2022-12-13T00:11:15.009Z,-2.20
2022-12-13T00:14:17.361Z,-2.30
2022-12-13T00:17:19.416Z,-2.40
2022-12-13T00:20:21.292Z,-2.30
2022-12-13T00:23:24.158Z,-2.40
2022-12-13T00:26:31.123Z,-2.30
2022-12-13T00:29:33.173Z,-2.30
2022-12-13T00:32:34.982Z,-2.30
2022-12-13T00:35:42.840Z,-2.30
2022-12-13T00:38:45.037Z,-2.40
2022-12-13T00:41:47.584Z,-2.40
2022-12-13T00:44:49.373Z,-2.40
2022-12-13T00:47:51.154Z,-2.50
2022-12-13T00:50:53.182Z,-2.40
2022-12-13T00:53:55.955Z,-2.40
2022-12-13T00:56:57.703Z,-2.20
2022-12-13T00:59:59.901Z,-2.30
2022-12-13T01:03:20.275Z,-2.30
2022-12-13T01:06:34.074Z,-2.20
2022-12-13T01:09:36.317Z,-2.40
2022-12-13T01:12:39.094Z,-2.40
2022-12-13T01:15:45.695Z,-2.40
2022-12-13T01:18:47.560Z,-2.40
2022-12-13T01:21:49.670Z,-2.50
2022-12-13T01:24:51.753Z,-2.40
2022-12-13T01:27:53.532Z,-2.40
2022-12-13T01:31:10.555Z,-2.50
2022-12-13T01:34:13.665Z,-2.40
2022-12-13T01:37:17.612Z,-2.50
2022-12-13T01:40:19.477Z,-2.60
2022-12-13T01:43:37.457Z,-2.50
2022-12-13T01:46:39.354Z,-2.60
2022-12-13T01:49:41.728Z,-2.60
2022-12-13T01:52:44.952Z,-2.60
2022-12-13T01:55:50.496Z,-2.60
2022-12-13T01:58:54.976Z,-2.60
2022-12-13T02:02:00.905Z,-2.60
2022-12-13T02:05:23.682Z,-2.60
2022-12-13T02:08:26.023Z,-2.60
2022-12-13T02:11:28.210Z,-2.60
2022-12-13T02:14:30.179Z,-2.60
2022-12-13T02:17:43.860Z,-2.70
2022-12-13T02:21:02.350Z,-2.60
2022-12-13T02:24:08.848Z,-2.70
2022-12-13T02:27:18.036Z,-2.70
2022-12-13T02:30:41.658Z,-2.70
2022-12-13T02:34:23.523Z,-2.70
2022-12-13T02:37:49.538Z,-2.70
2022-12-13T02:41:08.910Z,-2.70
2022-12-13T02:44:27.562Z,-2.70
2022-12-13T02:47:32.075Z,-2.70
2022-12-13T02:50:36.069Z,-2.70
2022-12-13T02:53:41.121Z,-2.70
2022-12-13T02:56:42.853Z,-2.70
2022-12-13T02:59:44.644Z,-2.80
2022-12-13T03:03:23.556Z,-2.80
2022-12-13T03:06:43.924Z,-2.70
2022-12-13T03:10:04.386Z,-2.80
2022-12-13T03:13:36.062Z,-2.70
2022-12-13T03:16:44.402Z,-2.60
2022-12-13T03:19:46.162Z,-2.60
2022-12-13T03:22:47.921Z,-2.70
2022-12-13T03:25:53.645Z,-2.70
2022-12-13T03:28:55.977Z,-2.70
2022-12-13T03:31:57.723Z,-2.70
2022-12-13T03:35:00.482Z,-2.70
2022-12-13T03:38:04.218Z,-2.70
2022-12-13T03:41:16.178Z,-2.80
2022-12-13T03:44:18.864Z,-2.80
2022-12-13T03:47:20.926Z,-2.90
2022-12-13T03:50:26.897Z,-2.90
2022-12-13T03:53:33.563Z,-2.90
2022-12-13T03:56:36.299Z,-3.00
2022-12-13T03:59:39.057Z,-2.90
2022-12-13T04:02:40.934Z,-2.90
2022-12-13T04:05:43.202Z,-2.80
2022-12-13T04:08:45.178Z,-2.90
2022-12-13T04:12:19.268Z,-3.00
2022-12-13T04:15:21.069Z,-3.00
2022-12-13T04:18:23.072Z,-2.90
2022-12-13T04:21:25.322Z,-2.90
2022-12-13T04:24:30.788Z,-3.00
2022-12-13T04:27:34.343Z,-2.90
2022-12-13T04:30:36.760Z,-2.90
2022-12-13T04:33:38.533Z,-2.90
2022-12-13T04:36:41.803Z,-2.70
2022-12-13T04:39:47.978Z,-2.70
2022-12-13T04:42:54.141Z,-2.70
2022-12-13T04:45:56.449Z,-2.70
2022-12-13T04:48:58.467Z,-2.80
2022-12-13T04:52:02.170Z,-2.80
2022-12-13T04:55:04.972Z,-2.80
2022-12-13T04:58:06.703Z,-2.80
2022-12-13T05:01:11.288Z,-2.90
2022-12-13T05:04:13.588Z,-2.90
2022-12-13T05:07:15.634Z,-2.80
2022-12-13T05:10:33.545Z,-2.80
2022-12-13T05:13:39.596Z,-2.90
2022-12-13T05:16:41.664Z,-2.80
2022-12-13T05:19:43.511Z,-2.80
2022-12-13T05:22:45.370Z,-2.80
2022-12-13T05:25:47.390Z,-2.90
2022-12-13T05:28:51.380Z,-2.90
2022-12-13T05:31:53.440Z,-2.90
2022-12-13T05:34:55.400Z,-2.90
2022-12-13T05:37:57.236Z,-2.80
2022-12-13T05:40:59.290Z,-2.80
2022-12-13T05:44:01.539Z,-2.70
2022-12-13T05:47:03.399Z,-2.60
2022-12-13T05:50:05.712Z,-2.60
2022-12-13T05:53:12.724Z,-2.60
2022-12-13T05:56:14.513Z,-2.60
2022-12-13T05:59:24.585Z,-2.50
2022-12-13T06:02:26.429Z,-2.50
2022-12-13T06:05:29.180Z,-2.50
2022-12-13T06:08:31.397Z,-2.60
2022-12-13T06:11:33.145Z,-2.50
2022-12-13T06:14:35.097Z,-2.60
2022-12-13T06:17:37.361Z,-2.60
2022-12-13T06:20:39.226Z,-2.60
2022-12-13T06:23:41.011Z,-2.60
2022-12-13T06:26:45.379Z,-2.70
2022-12-13T06:29:48.430Z,-2.70
2022-12-13T06:32:50.245Z,-2.80
2022-12-13T06:35:52.812Z,-2.80
2022-12-13T06:38:54.771Z,-2.80
2022-12-13T06:41:56.692Z,-2.80
2022-12-13T06:44:58.470Z,-2.80
2022-12-13T06:48:00.537Z,-2.80
2022-12-13T06:51:04.059Z,-2.80
2022-12-13T06:54:06.936Z,-2.80
2022-12-13T06:57:09.107Z,-2.80
2022-12-13T07:00:11.534Z,-2.80
2022-12-13T07:03:13.442Z,-2.80
2022-12-13T07:06:17.722Z,-2.80
2022-12-13T07:09:19.789Z,-2.80
2022-12-13T07:12:21.802Z,-2.80
2022-12-13T07:15:24.098Z,-2.90
2022-12-13T07:18:26.622Z,-2.90
2022-12-13T07:21:29.739Z,-2.80
2022-12-13T07:24:31.908Z,-2.90
2022-12-13T07:27:37.975Z,-2.90
2022-12-13T07:30:41.073Z,-2.90
2022-12-13T07:33:43.823Z,-2.80
2022-12-13T07:36:45.888Z,-2.80
2022-12-13T07:39:47.640Z,-2.90
2022-12-13T07:42:50.915Z,-2.80
2022-12-13T07:45:53.503Z,-2.90
2022-12-13T07:48:55.981Z,-2.80
2022-12-13T07:52:03.760Z,-2.80
2022-12-13T07:55:07.331Z,-2.80
2022-12-13T07:58:14.703Z,-2.80
2022-12-13T08:01:16.484Z,-2.70
2022-12-13T08:04:18.429Z,-2.70
2022-12-13T08:07:20.211Z,-2.80
2022-12-13T08:10:22.270Z,-2.80
2022-12-13T08:13:23.961Z,-2.70
2022-12-13T08:16:26.095Z,-2.60
2022-12-13T08:19:30.190Z,-2.70
2022-12-13T08:22:35.990Z,-2.60
2022-12-13T08:25:38.310Z,-2.60
2022-12-13T08:28:40.069Z,-2.60
2022-12-13T08:31:41.962Z,-2.50
2022-12-13T08:34:44.122Z,-2.40
2022-12-13T08:37:46.114Z,-2.30
2022-12-13T08:40:47.848Z,-2.30
2022-12-13T08:43:53.336Z,-2.20
2022-12-13T08:46:55.399Z,-2.10
2022-12-13T08:50:03.966Z,-2.00
2022-12-13T08:53:07.007Z,-1.90
2022-12-13T08:56:11.865Z,-1.90
2022-12-13T08:59:16.138Z,-1.90
2022-12-13T09:02:18.188Z,-1.80
2022-12-13T09:05:33.059Z,-1.70
2022-12-13T09:08:37.418Z,-1.80
2022-12-13T09:11:40.997Z,-1.60
2022-12-13T09:14:45.601Z,-1.60
2022-12-13T09:17:52.555Z,-1.60
2022-12-13T09:20:54.718Z,-1.60
2022-12-13T09:24:13.416Z,-1.50
2022-12-13T09:27:27.806Z,-1.50
2022-12-13T09:30:31.636Z,-1.50
2022-12-13T09:33:41.379Z,-1.50
2022-12-13T09:36:43.618Z,-1.50
2022-12-13T09:39:47.366Z,-1.40
2022-12-13T09:43:13.451Z,-1.30
2022-12-13T09:46:44.989Z,-1.20
2022-12-13T09:49:47.329Z,-1.10
2022-12-13T09:53:00.132Z,-1.00
2022-12-13T09:56:10.303Z,-0.90
2022-12-13T09:59:14.594Z,-0.90
2022-12-13T10:02:23.275Z,-0.90
2022-12-13T10:05:40.130Z,-0.90
2022-12-13T10:08:46.037Z,-0.70
2022-12-13T10:11:53.545Z,-0.60
2022-12-13T10:14:59.526Z,-0.50
2022-12-13T10:18:03.900Z,-0.50
2022-12-13T10:21:12.856Z,-0.50
2022-12-13T10:24:27.658Z,-0.40
2022-12-13T10:27:37.420Z,-0.40
2022-12-13T10:30:46.319Z,-0.30
2022-12-13T10:33:56.230Z,-0.20
2022-12-13T10:36:59.622Z,-0.10
2022-12-13T10:40:01.844Z,-0.10
2022-12-13T10:43:17.302Z,-0.10
2022-12-13T10:46:25.165Z,0.00
2022-12-13T10:49:40.362Z,0.00
2022-12-13T10:52:48.220Z,0.10
2022-12-13T10:55:56.111Z,0.20
2022-12-13T10:59:37.747Z,0.20
2022-12-13T11:02:40.105Z,0.30
2022-12-13T11:05:42.145Z,0.30
2022-12-13T11:08:44.323Z,0.30
2022-12-13T11:11:46.686Z,0.30
2022-12-13T11:14:56.248Z,0.50
2022-12-13T11:18:20.181Z,0.60
2022-12-13T11:21:33.701Z,0.50
2022-12-13T11:24:42.348Z,0.60
2022-12-13T11:28:26.503Z,0.50
2022-12-13T11:32:00.493Z,0.50
2022-12-13T11:35:04.959Z,0.50
2022-12-13T11:38:47.434Z,0.50
2022-12-13T11:42:06.128Z,0.50
2022-12-13T11:45:33.979Z,0.50
2022-12-13T11:48:59.318Z,0.50
2022-12-13T11:52:13.842Z,0.40
2022-12-13T11:55:43.027Z,0.50
2022-12-13T11:59:23.764Z,0.50
2022-12-13T12:02:35.861Z,0.50
2022-12-13T12:05:43.099Z,0.60
2022-12-13T12:08:53.035Z,0.50
2022-12-13T12:12:04.701Z,0.60
2022-12-13T12:15:29.964Z,0.60
2022-12-13T12:18:33.242Z,0.70
2022-12-13T12:22:12.232Z,0.80
2022-12-13T12:25:42.361Z,0.80
2022-12-13T12:29:19.451Z,0.80
2022-12-13T12:32:32.090Z,1.00
2022-12-13T12:35:48.379Z,0.90
2022-12-13T12:39:13.105Z,0.90
2022-12-13T12:42:49.933Z,0.90
2022-12-13T12:46:13.734Z,0.90
2022-12-13T12:49:40.657Z,1.00
2022-12-13T12:52:59.116Z,0.90
2022-12-13T12:56:15.456Z,1.00
2022-12-13T13:00:06.203Z,1.00
2022-12-13T13:03:26.640Z,1.00
2022-12-13T13:06:49.301Z,1.00
2022-12-13T13:09:55.161Z,1.10
2022-12-13T13:13:11.663Z,1.00
2022-12-13T13:16:37.804Z,0.90
2022-12-13T13:19:41.773Z,1.00
2022-12-13T13:22:47.676Z,1.00
2022-12-13T13:29:27.020Z,1.00
2022-12-13T13:32:31.457Z,1.00
2022-12-13T13:35:33.460Z,1.00
2022-12-13T13:38:54.468Z,1.00
2022-12-13T13:42:09.786Z,1.00
2022-12-13T13:45:25.161Z,1.00
2022-12-13T13:48:51.884Z,1.10
2022-12-13T13:55:37.165Z,1.00
2022-12-13T13:59:16.622Z,1.00
2022-12-13T14:02:52.073Z,1.00
2022-12-13T14:06:03.328Z,1.00
2022-12-13T14:09:38.391Z,0.90
2022-12-13T14:12:52.858Z,1.00
2022-12-13T14:16:25.194Z,1.00
2022-12-13T14:19:59.385Z,0.90
2022-12-13T14:23:32.888Z,0.90
2022-12-13T14:26:53.033Z,1.00
2022-12-13T14:29:58.610Z,0.90
2022-12-13T14:33:01.078Z,0.90
2022-12-13T14:36:04.254Z,0.90
2022-12-13T14:39:25.286Z,0.90
2022-12-13T14:42:35.986Z,0.90
2022-12-13T14:45:39.085Z,0.90
2022-12-13T14:49:00.792Z,0.90
2022-12-13T14:52:27.187Z,0.90
2022-12-13T14:55:32.113Z,1.00
2022-12-13T14:58:37.016Z,0.90
2022-12-13T15:01:39.206Z,0.90
2022-12-13T15:04:40.966Z,0.80
2022-12-13T15:07:42.759Z,0.80
2022-12-13T15:10:51.380Z,0.90
2022-12-13T15:13:53.466Z,0.80
2022-12-13T15:16:56.874Z,0.90
2022-12-13T15:19:59.591Z,0.80
2022-12-13T15:23:06.190Z,0.80
2022-12-13T15:26:29.485Z,0.80
2022-12-13T15:29:33.072Z,0.80
2022-12-13T15:32:34.829Z,0.80
2022-12-13T15:35:37.570Z,0.80
2022-12-13T15:38:45.648Z,0.80
2022-12-13T15:41:49.281Z,0.80
2022-12-13T15:44:55.538Z,0.80
2022-12-13T15:47:57.425Z,0.70
2022-12-13T15:51:28.922Z,0.80
2022-12-13T15:54:33.982Z,0.80
2022-12-13T15:57:36.651Z,0.80
2022-12-13T16:00:48.314Z,0.80
2022-12-13T16:03:50.275Z,0.70
2022-12-13T16:06:53.279Z,0.70
2022-12-13T16:09:57.426Z,0.80
2022-12-13T16:13:07.843Z,0.70
2022-12-13T16:16:28.013Z,0.80
2022-12-13T16:19:30.242Z,0.80
2022-12-13T16:22:32.099Z,0.70
2022-12-13T16:25:33.871Z,0.80
2022-12-13T16:28:35.606Z,0.70
2022-12-13T16:31:37.823Z,0.70
2022-12-13T16:34:40.213Z,0.70
2022-12-13T16:37:42.134Z,0.70
2022-12-13T16:40:53.766Z,0.60
2022-12-13T16:44:02.426Z,0.70
2022-12-13T16:47:11.548Z,0.70
2022-12-13T16:50:21.380Z,0.60
2022-12-13T16:53:24.862Z,0.60
2022-12-13T16:56:27.175Z,0.60
2022-12-13T16:59:28.877Z,0.60
2022-12-13T17:02:30.610Z,0.60
2022-12-13T17:05:34.261Z,0.70
2022-12-13T17:08:36.235Z,0.60
2022-12-13T17:11:38.208Z,0.60
2022-12-13T17:14:39.919Z,0.60
2022-12-13T17:17:44.167Z,0.60
2022-12-13T17:20:46.729Z,0.70
2022-12-13T17:24:01.518Z,0.60
2022-12-13T17:27:03.528Z,0.70
2022-12-13T17:30:10.699Z,0.60
2022-12-13T17:33:13.305Z,0.60
2022-12-13T17:36:16.424Z,0.60
2022-12-13T17:39:18.264Z,0.60
2022-12-13T17:42:20.173Z,0.60
2022-12-13T17:45:23.152Z,0.70
2022-12-13T17:48:25.216Z,0.60
2022-12-13T17:51:27.241Z,0.60
2022-12-13T17:54:29.571Z,0.60
2022-12-13T17:57:35.105Z,0.60
2022-12-13T18:00:37.953Z,0.60
2022-12-13T18:03:39.999Z,0.60
2022-12-13T18:06:41.788Z,0.60
2022-12-13T18:09:43.833Z,0.60
2022-12-13T18:12:47.156Z,0.60
2022-12-13T18:15:49.117Z,0.50
2022-12-13T18:18:54.859Z,0.50
2022-12-13T18:22:00.854Z,0.50
2022-12-13T18:25:02.776Z,0.50
2022-12-13T18:28:32.471Z,0.50
2022-12-13T18:35:28.239Z,0.40
2022-12-13T18:38:36.249Z,0.50
2022-12-13T18:41:39.781Z,0.50
2022-12-13T18:48:54.780Z,0.50
2022-12-13T18:51:56.474Z,0.50
2022-12-13T18:55:50.991Z,0.50
2022-12-13T18:59:08.492Z,0.50
2022-12-13T19:02:13.178Z,0.40
2022-12-13T19:05:16.688Z,0.50
2022-12-13T19:08:18.656Z,0.40
2022-12-13T19:11:20.750Z,0.40
2022-12-13T19:14:26.986Z,0.30
2022-12-13T19:17:29.183Z,0.30
2022-12-13T19:20:31.237Z,0.40
2022-12-13T19:23:33.461Z,0.40
2022-12-13T19:26:35.340Z,0.30
2022-12-13T19:29:37.143Z,0.20
2022-12-13T19:32:39.481Z,0.30
2022-12-13T19:35:46.601Z,0.30
2022-12-13T19:38:48.523Z,0.30
2022-12-13T19:41:50.762Z,0.30
2022-12-13T19:44:52.526Z,0.40
2022-12-13T19:48:03.735Z,0.20
2022-12-13T19:51:07.945Z,0.30
2022-12-13T19:54:15.898Z,0.30
2022-12-13T19:57:20.855Z,0.20
2022-12-13T20:00:28.837Z,0.40
2022-12-13T20:03:49.708Z,0.40
2022-12-13T20:06:54.722Z,0.40
2022-12-13T20:10:02.646Z,0.30
2022-12-13T20:13:14.710Z,0.30
2022-12-13T20:16:28.380Z,0.30
2022-12-13T20:19:36.810Z,0.20
2022-12-13T20:22:41.693Z,0.20
2022-12-13T20:25:44.828Z,0.20
2022-12-13T20:35:12.198Z,0.00
2022-12-13T20:38:13.949Z,-0.10
2022-12-13T20:41:19.184Z,-0.10
2022-12-13T20:44:21.319Z,0.00
2022-12-13T20:47:23.144Z,-0.10
2022-12-13T20:53:43.469Z,-0.10
2022-12-13T21:00:01.655Z,-0.10
2022-12-13T21:14:22.733Z,-0.10
2022-12-13T21:17:32.082Z,-0.10
2022-12-13T21:20:43.063Z,0.00
2022-12-13T21:23:44.989Z,0.00
2022-12-13T21:26:47.648Z,0.00
2022-12-13T21:29:49.475Z,0.00
2022-12-13T21:32:53.005Z,-0.10
2022-12-13T21:35:55.332Z,0.00
2022-12-13T21:39:02.361Z,-0.10
2022-12-13T21:42:04.487Z,-0.10
2022-12-13T21:45:06.891Z,-0.10
2022-12-13T21:48:08.919Z,-0.10
2022-12-13T21:51:16.096Z,-0.10
2022-12-13T21:54:17.980Z,-0.10
2022-12-13T21:57:38.753Z,-0.10
2022-12-13T22:00:40.718Z,-0.20
2022-12-13T22:03:42.576Z,-0.20
2022-12-13T22:06:44.553Z,-0.20
2022-12-13T22:09:46.995Z,-0.20
2022-12-13T22:12:48.985Z,-0.10
2022-12-13T22:15:51.125Z,-0.10
2022-12-13T22:18:56.822Z,-0.10
2022-12-13T22:21:58.792Z,-0.20
2022-12-13T22:25:01.481Z,-0.10
2022-12-13T22:28:03.507Z,-0.20
2022-12-13T22:31:05.555Z,-0.20
2022-12-13T22:34:07.522Z,-0.20
2022-12-13T22:37:09.315Z,-0.20
2022-12-13T22:40:11.844Z,-0.30
2022-12-13T22:43:18.864Z,-0.30
2022-12-13T22:46:22.489Z,-0.30
2022-12-13T22:49:24.477Z,-0.20
2022-12-13T22:52:31.891Z,-0.20
2022-12-13T22:55:35.411Z,-0.20
2022-12-13T22:58:38.458Z,-0.10
2022-12-13T23:01:40.560Z,-0.20
2022-12-13T23:04:42.402Z,-0.20
2022-12-13T23:07:44.195Z,-0.20
2022-12-13T23:11:09.113Z,-0.20
2022-12-13T23:14:13.705Z,-0.20
2022-12-13T23:17:15.678Z,-0.20
2022-12-13T23:20:17.653Z,-0.20
2022-12-13T23:23:19.962Z,-0.20
2022-12-13T23:26:24.230Z,-0.20
2022-12-13T23:29:26.241Z,-0.30
2022-12-13T23:32:28.084Z,-0.40
2022-12-13T23:35:29.827Z,-0.30
2022-12-13T23:38:31.740Z,-0.40
2022-12-13T23:41:34.317Z,-0.40
2022-12-13T23:44:36.340Z,-0.40
2022-12-13T23:47:38.105Z,-0.40
2022-12-13T23:50:40.079Z,-0.40
2022-12-13T23:53:42.313Z,-0.40
2022-12-13T23:56:44.134Z,-0.40
2022-12-13T23:59:46.315Z,-0.30
